Time;durP1;ratioP1;P1;durP2;ratioP2;P2;SDS_P1;SDS_P2;PMS_P1;PMS_P2;Temp;Humidity;BMP_temperature;BMP_pressure;BME280_temperature;BME280_humidity;BME280_pressure;Samples;Min_cycle;Max_cycle;Signal;HPM_P1;HPM_P2
2023/08/03 00:01:23;;;;;;;1.83;1.05;;;;;;;15.24;69.89;98286.06;5044309;28;20022;-59
2023/08/03 00:03:48;;;;;;;1.58;1.00;;;;;;;15.29;69.95;98294.47;5044352;28;20058;-57
2023/08/03 00:06:14;;;;;;;2.60;1.00;;;;;;;15.31;69.96;98295.22;5044583;28;20025;-57
2023/08/03 00:08:39;;;;;;;1.25;1.10;;;;;;;15.33;69.90;98293.34;5047469;28;20029;-55
2023/08/03 00:11:04;;;;;;;1.60;1.15;;;;;;;15.31;69.87;98287.38;5047951;28;20187;-59
2023/08/03 00:13:30;;;;;;;1.15;0.90;;;;;;;15.32;69.73;98283.81;5047887;28;20029;-56
2023/08/03 00:15:55;;;;;;;1.30;1.20;;;;;;;15.32;69.87;98289.03;5048059;28;20025;-57
2023/08/03 00:18:21;;;;;;;3.78;1.48;;;;;;;15.35;69.73;98277.56;5047801;28;20029;-58
2023/08/03 00:20:47;;;;;;;3.65;0.98;;;;;;;15.33;69.73;98277.66;5047278;28;20041;-57
2023/08/03 00:23:13;;;;;;;1.33;1.00;;;;;;;15.35;69.76;98277.56;5047664;28;20100;-51
2023/08/03 00:25:38;;;;;;;1.88;1.20;;;;;;;15.35;69.82;98272.34;5047962;28;20033;-55
2023/08/03 00:28:04;;;;;;;2.42;1.02;;;;;;;15.34;69.94;98274.09;5047612;28;20040;-57
2023/08/03 00:30:29;;;;;;;1.25;1.08;;;;;;;15.35;70.06;98272.34;5047442;28;20026;-58
2023/08/03 00:32:55;;;;;;;1.75;1.00;;;;;;;15.36;70.13;98272.25;5047804;28;20076;-57
2023/08/03 00:35:20;;;;;;;1.48;1.00;;;;;;;15.36;69.92;98271.41;5047523;28;20036;-56
2023/08/03 00:37:45;;;;;;;1.05;0.95;;;;;;;15.38;70.11;98266.91;5047244;28;20439;-56
2023/08/03 00:40:11;;;;;;;9.95;1.15;;;;;;;15.41;69.61;98271.94;5047561;28;20045;-57
2023/08/03 00:42:36;;;;;;;4.53;1.27;;;;;;;15.35;70.01;98269.72;5047364;28;20431;-58
2023/08/03 00:45:03;;;;;;;1.83;1.35;;;;;;;15.38;69.60;98269.53;5047218;28;20051;-58
2023/08/03 00:47:28;;;;;;;2.13;1.33;;;;;;;15.36;69.50;98266.16;5047438;28;20025;-57
2023/08/03 00:49:54;;;;;;;1.35;1.10;;;;;;;15.39;69.50;98272.97;5047369;28;20030;-57
2023/08/03 00:52:20;;;;;;;2.22;1.17;;;;;;;15.33;70.20;98275.06;5047017;28;20029;-57
2023/08/03 00:54:45;;;;;;;4.30;1.27;;;;;;;15.32;69.96;98268.13;5047220;28;20025;-55
2023/08/03 00:57:11;;;;;;;1.20;1.00;;;;;;;15.31;70.15;98271.69;5029208;28;20044;-57
2023/08/03 00:59:36;;;;;;;1.48;1.02;;;;;;;15.29;70.43;98270.13;5047008;28;20021;-57
2023/08/03 01:02:02;;;;;;;1.40;1.05;;;;;;;15.18;70.45;98244.63;5047018;28;20056;-55
2023/08/03 01:04:27;;;;;;;1.58;1.02;;;;;;;15.29;71.17;98265.69;5047105;28;20026;-56
2023/08/03 01:06:53;;;;;;;1.52;1.00;;;;;;;15.28;71.59;98260.56;5046995;28;20029;-55
2023/08/03 01:09:18;;;;;;;1.42;1.20;;;;;;;15.20;71.82;98248.00;5046963;28;20028;-56
2023/08/03 01:11:44;;;;;;;1.65;1.00;;;;;;;15.29;72.53;98254.44;5029013;28;20025;-56
2023/08/03 01:14:10;;;;;;;2.15;0.88;;;;;;;15.28;72.89;98260.56;5046609;28;20513;-55
2023/08/03 01:16:36;;;;;;;1.40;1.00;;;;;;;15.33;74.19;98254.13;5047098;28;20068;-54
2023/08/03 01:19:02;;;;;;;1.13;0.82;;;;;;;15.26;74.05;98263.28;5045944;28;20073;-58
2023/08/03 01:21:31;;;;;;;1.55;0.90;;;;;;;15.27;75.01;98259.72;5046627;28;20081;-57
2023/08/03 01:23:57;;;;;;;1.30;1.00;;;;;;;15.23;74.92;98255.63;5046483;28;20039;-56
2023/08/03 01:26:23;;;;;;;2.05;0.85;;;;;;;15.21;74.75;98253.13;5046765;28;20025;-54
2023/08/03 01:28:49;;;;;;;1.55;1.10;;;;;;;15.19;74.83;98254.16;5046444;28;20068;-55
2023/08/03 01:31:18;;;;;;;1.63;1.30;;;;;;;15.25;75.55;98261.63;5046329;28;20052;-56
2023/08/03 01:33:44;;;;;;;1.23;1.13;;;;;;;15.19;75.67;98257.59;5046437;28;20056;-55
2023/08/03 01:36:09;;;;;;;1.85;1.20;;;;;;;15.17;75.55;98253.41;5046474;28;20056;-57
2023/08/03 01:38:55;;;;;;;2.47;1.27;;;;;;;15.15;75.63;98250.88;5082238;28;20876;-58
2023/08/03 01:41:22;;;;;;;1.40;1.00;;;;;;;15.14;75.45;98250.97;5082591;28;20092;-56
2023/08/03 01:44:12;;;;;;;1.20;0.98;;;;;;;15.11;75.76;98245.00;5081710;28;20025;-56
2023/08/03 01:46:37;;;;;;;1.83;1.17;;;;;;;15.09;75.84;98246.91;5077137;28;20060;-55
2023/08/03 01:49:03;;;;;;;2.13;1.42;;;;;;;15.10;75.70;98243.34;5081961;28;20036;-52
2023/08/03 01:51:28;;;;;;;1.50;0.95;;;;;;;15.16;76.25;98246.50;5082243;28;20025;-55
2023/08/03 01:53:54;;;;;;;2.53;1.20;;;;;;;15.13;76.30;98241.47;5081899;28;20027;-57
2023/08/03 01:56:19;;;;;;;1.75;1.10;;;;;;;15.14;76.84;98240.53;5082163;28;20033;-56
2023/08/03 01:58:44;;;;;;;1.65;1.08;;;;;;;15.11;76.55;98238.97;5082136;28;20514;-52
2023/08/03 02:01:10;;;;;;;1.40;1.13;;;;;;;15.12;76.99;98238.00;5082087;28;20025;-54
2023/08/03 02:03:35;;;;;;;2.28;1.10;;;;;;;15.11;77.47;98231.94;5081936;28;20025;-56
2023/08/03 02:06:00;;;;;;;2.83;1.20;;;;;;;15.11;77.41;98242.38;5082167;28;20024;-56
2023/08/03 02:08:26;;;;;;;4.72;1.52;;;;;;;15.10;77.59;98238.09;5081248;28;20128;-52
2023/08/03 02:10:51;;;;;;;1.60;1.13;;;;;;;15.10;77.12;98245.09;5081770;28;20037;-55
2023/08/03 02:13:16;;;;;;;2.05;1.40;;;;;;;15.08;77.21;98239.97;5081521;28;20029;-57
2023/08/03 02:15:42;;;;;;;2.70;1.27;;;;;;;15.08;76.91;98242.59;5081917;28;20024;-56
2023/08/03 02:18:07;;;;;;;1.00;0.90;;;;;;;15.09;76.85;98241.66;5081416;28;20032;-58
2023/08/03 02:20:33;;;;;;;2.70;1.52;;;;;;;15.06;76.60;98239.25;5081607;28;20440;-56
2023/08/03 02:22:58;;;;;;;0.88;0.88;;;;;;;15.07;76.44;98238.31;5081531;28;20031;-57
2023/08/03 02:25:23;;;;;;;6.25;1.30;;;;;;;15.03;76.37;98235.97;5081484;28;20029;-53
2023/08/03 02:27:50;;;;;;;3.30;1.70;;;;;;;14.99;76.63;98235.31;5081370;28;20025;-55
2023/08/03 02:30:15;;;;;;;1.20;1.00;;;;;;;14.96;76.34;98231.13;5081718;28;20021;-54
2023/08/03 02:32:41;;;;;;;1.58;1.27;;;;;;;14.95;76.48;98241.69;5081105;28;20096;-55
2023/08/03 02:35:06;;;;;;;6.35;1.13;;;;;;;14.89;76.62;98231.59;5081104;28;20032;-57
2023/08/03 02:37:32;;;;;;;2.22;1.50;;;;;;;14.85;76.44;98231.81;5080598;28;20311;-55
2023/08/03 02:39:57;;;;;;;2.92;1.38;;;;;;;14.79;76.73;98237.38;5081533;28;20104;-55
2023/08/03 02:42:22;;;;;;;1.23;1.13;;;;;;;14.73;76.93;98230.72;5081106;28;20027;-56
2023/08/03 02:44:48;;;;;;;2.15;1.60;;;;;;;14.68;77.39;98226.72;5081021;28;20025;-57
2023/08/03 02:47:13;;;;;;;2.35;1.40;;;;;;;14.62;77.35;98225.31;5080899;28;20048;-56
2023/08/03 02:49:39;;;;;;;1.65;1.40;;;;;;;14.56;77.57;98217.84;5070915;28;20362;-56
2023/08/03 02:52:05;;;;;;;2.03;1.30;;;;;;;14.54;78.09;98224.94;5067245;28;20020;-55
2023/08/03 02:54:30;;;;;;;2.60;1.35;;;;;;;14.55;78.03;98230.09;5066211;28;20477;-54
2023/08/03 02:56:55;;;;;;;1.40;1.30;;;;;;;14.52;77.57;98222.41;5067516;28;20040;-57
2023/08/03 02:59:21;;;;;;;4.53;1.55;;;;;;;14.49;77.81;98230.44;5067377;28;20032;-57
2023/08/03 03:01:46;;;;;;;1.80;1.25;;;;;;;14.50;77.69;98227.72;5067375;28;20025;-57
2023/08/03 03:04:12;;;;;;;2.88;1.65;;;;;;;14.50;77.66;98216.47;5067335;28;20021;-56
2023/08/03 03:06:38;;;;;;;1.63;1.15;;;;;;;14.37;77.76;98200.69;5067557;28;20025;-55
2023/08/03 03:09:04;;;;;;;3.35;1.77;;;;;;;14.49;77.60;98213.00;5066992;28;20084;-56
2023/08/03 03:11:29;;;;;;;1.50;1.35;;;;;;;14.48;77.54;98213.94;5066884;28;20040;-56
2023/08/03 03:13:55;;;;;;;2.13;1.20;;;;;;;14.46;77.66;98199.28;5067266;28;20025;-57
2023/08/03 03:16:25;;;;;;;2.13;1.38;;;;;;;14.47;77.60;98204.41;5067351;28;20040;-55
2023/08/03 03:18:51;;;;;;;2.15;1.48;;;;;;;14.50;77.35;98209.44;5067408;28;20029;-57
2023/08/03 03:21:16;;;;;;;1.23;1.05;;;;;;;14.52;77.42;98204.13;5067049;28;20085;-57
2023/08/03 03:23:42;;;;;;;1.95;1.17;;;;;;;14.49;77.55;98206.94;5066801;28;20448;-57
2023/08/03 03:26:07;;;;;;;1.42;1.17;;;;;;;14.45;77.57;98203.69;5067214;28;20021;-57
2023/08/03 03:28:33;;;;;;;1.45;1.27;;;;;;;14.41;77.63;98196.13;5066898;28;20085;-57
2023/08/03 03:30:58;;;;;;;1.40;1.15;;;;;;;14.53;77.79;98208.44;5066738;28;20036;-57
2023/08/03 03:33:23;;;;;;;5.03;1.35;;;;;;;14.57;77.78;98203.88;5066538;28;20079;-57
2023/08/03 03:35:49;;;;;;;1.65;1.45;;;;;;;14.60;77.62;98209.72;5066826;28;20369;-56
2023/08/03 03:38:14;;;;;;;1.55;1.20;;;;;;;14.66;77.81;98205.94;5066501;28;20041;-56
2023/08/03 03:40:40;;;;;;;1.23;0.98;;;;;;;14.73;77.68;98203.75;5066821;28;20021;-56
2023/08/03 03:43:05;;;;;;;2.03;1.42;;;;;;;14.76;77.87;98198.34;5066638;28;20029;-55
2023/08/03 03:45:30;;;;;;;1.75;1.33;;;;;;;14.79;78.38;98202.56;5066421;28;20529;-56
2023/08/03 03:47:56;;;;;;;2.47;1.48;;;;;;;14.85;78.28;98208.28;5066642;28;20025;-54
2023/08/03 03:50:21;;;;;;;3.30;1.33;;;;;;;14.91;78.22;98196.59;5066705;28;20501;-56
2023/08/03 03:52:47;;;;;;;1.52;1.33;;;;;;;14.92;78.29;98197.47;5066257;28;20535;-56
2023/08/03 03:55:13;;;;;;;2.40;1.58;;;;;;;15.00;78.53;98203.03;5066651;28;20017;-53
2023/08/03 03:57:38;;;;;;;4.07;1.58;;;;;;;15.05;78.73;98198.34;5066346;28;20033;-58
2023/08/03 04:00:05;;;;;;;2.55;1.40;;;;;;;15.09;79.12;98197.25;5065875;28;20029;-55
2023/08/03 04:02:30;;;;;;;3.08;1.17;;;;;;;15.24;79.67;98194.56;5066157;28;20025;-55
2023/08/03 04:04:56;;;;;;;1.77;1.30;;;;;;;15.48;80.52;98201.78;5066426;28;20109;-56
2023/08/03 04:07:21;;;;;;;3.35;1.73;;;;;;;15.79;81.02;98205.03;5066127;28;20064;-54
2023/08/03 04:09:46;;;;;;;3.95;1.63;;;;;;;16.17;81.01;98190.38;5066184;28;20029;-56
2023/08/03 04:12:12;;;;;;;2.25;1.45;;;;;;;16.53;81.49;98198.44;5066201;28;20017;-56
2023/08/03 04:14:38;;;;;;;5.85;1.30;;;;;;;16.70;80.34;98197.28;5066065;28;20394;-55
2023/08/03 04:17:04;;;;;;;8.07;1.52;;;;;;;16.62;79.60;98199.59;5065973;28;20047;-54
2023/08/03 04:19:29;;;;;;;2.95;1.23;;;;;;;16.46;78.70;98205.03;5066122;28;20028;-51
2023/08/03 04:21:54;;;;;;;1.30;1.10;;;;;;;16.21;78.50;98199.69;5064817;28;20032;-54
2023/08/03 04:24:20;;;;;;;2.78;1.58;;;;;;;15.96;78.22;98205.69;5066092;28;20017;-55
2023/08/03 04:26:45;;;;;;;2.50;1.63;;;;;;;15.79;78.13;98205.03;5066120;28;20117;-57
2023/08/03 04:29:10;;;;;;;1.80;1.23;;;;;;;15.67;78.53;98205.84;5065967;28;20137;-55
2023/08/03 04:31:36;;;;;;;1.85;1.27;;;;;;;15.52;78.36;98203.28;5066208;28;20047;-54
2023/08/03 04:34:01;;;;;;;1.50;1.40;;;;;;;15.44;78.51;98202.94;5065970;28;20084;-58
2023/08/03 04:36:27;;;;;;;1.27;1.10;;;;;;;15.34;78.63;98203.53;5065847;28;20032;-57
2023/08/03 04:38:52;;;;;;;1.52;1.42;;;;;;;15.30;79.05;98214.28;5065866;28;20117;-56
2023/08/03 04:41:20;;;;;;;1.52;1.15;;;;;;;15.24;79.23;98205.88;5066135;28;20025;-54
2023/08/03 04:43:45;;;;;;;1.40;1.15;;;;;;;15.24;79.44;98205.03;5065691;28;20360;-55
2023/08/03 04:46:11;;;;;;;2.20;1.40;;;;;;;15.16;79.80;98202.91;5065788;28;20055;-56
2023/08/03 04:48:36;;;;;;;1.20;1.10;;;;;;;15.18;79.68;98202.81;5065808;28;20017;-57
2023/08/03 04:51:02;;;;;;;2.28;1.33;;;;;;;15.14;79.77;98196.09;5065876;28;20096;-55
2023/08/03 04:53:27;;;;;;;3.58;1.67;;;;;;;15.17;79.73;98203.75;5065443;28;20016;-57
2023/08/03 04:55:53;;;;;;;2.65;1.73;;;;;;;15.14;79.87;98196.09;5065708;28;20025;-55
2023/08/03 04:58:18;;;;;;;1.00;0.90;;;;;;;15.18;79.88;98202.81;5065179;28;20020;-57
2023/08/03 05:00:44;;;;;;;6.22;1.90;;;;;;;15.21;79.90;98200.84;5065612;28;20029;-58
2023/08/03 05:03:09;;;;;;;1.88;1.20;;;;;;;15.23;79.56;98200.75;5065329;28;20025;-56
2023/08/03 05:05:34;;;;;;;2.50;1.48;;;;;;;15.29;79.73;98197.75;5065483;28;20028;-58
2023/08/03 05:08:00;;;;;;;2.05;1.48;;;;;;;15.34;79.62;98200.91;5065223;28;20028;-56
2023/08/03 05:10:25;;;;;;;2.72;1.70;;;;;;;15.33;80.05;98201.84;5065570;28;20056;-56
2023/08/03 05:12:51;;;;;;;2.05;1.23;;;;;;;15.35;79.90;98207.81;5065101;28;20036;-57
2023/08/03 05:15:16;;;;;;;4.13;1.55;;;;;;;15.39;79.92;98200.63;5065348;28;20107;-56
2023/08/03 05:17:41;;;;;;;1.38;1.13;;;;;;;15.40;80.04;98197.03;5065244;28;20027;-58
2023/08/03 05:20:08;;;;;;;5.53;1.77;;;;;;;15.42;80.50;98204.78;5065403;28;20390;-58
2023/08/03 05:22:33;;;;;;;3.92;1.60;;;;;;;15.46;80.23;98206.28;5065063;28;20047;-55
2023/08/03 05:24:58;;;;;;;2.03;1.35;;;;;;;15.50;80.18;98207.75;5065294;28;20017;-56
2023/08/03 05:27:24;;;;;;;2.10;1.27;;;;;;;15.48;80.37;98204.41;5065343;28;20024;-55
2023/08/03 05:29:49;;;;;;;1.42;1.33;;;;;;;15.42;80.28;98205.66;5065076;28;20021;-59
2023/08/03 05:32:15;;;;;;;1.50;1.30;;;;;;;15.42;80.14;98200.41;5065266;28;20024;-53
2023/08/03 05:34:40;;;;;;;2.22;1.45;;;;;;;15.39;80.69;98205.84;5065007;28;20497;-54
2023/08/03 05:37:06;;;;;;;1.77;1.45;;;;;;;15.34;81.13;98203.53;5064756;28;20115;-58
2023/08/03 05:39:31;;;;;;;2.60;1.80;;;;;;;15.30;81.19;98195.97;5064795;28;20044;-54
2023/08/03 05:41:59;;;;;;;2.53;1.70;;;;;;;15.32;81.30;98204.56;5065027;28;20025;-58
2023/08/03 05:44:24;;;;;;;1.90;1.40;;;;;;;15.30;81.29;98202.06;5065115;28;20025;-57
2023/08/03 05:46:50;;;;;;;3.03;1.60;;;;;;;15.30;81.54;98199.44;5065122;28;20032;-57
2023/08/03 05:49:15;;;;;;;2.35;1.80;;;;;;;15.32;81.60;98192.31;5064950;28;20029;-58
2023/08/03 05:51:41;;;;;;;1.70;1.60;;;;;;;15.28;81.42;98176.94;5065014;28;20029;-58
2023/08/03 05:54:12;;;;;;;4.95;2.40;;;;;;;15.47;81.29;98198.34;5064700;28;20029;-59
2023/08/03 05:56:38;;;;;;;3.25;1.70;;;;;;;15.49;81.23;98187.78;5064943;28;20116;-59
2023/08/03 05:59:03;;;;;;;1.80;1.33;;;;;;;15.55;81.43;98190.00;5065003;28;20037;-59
2023/08/03 06:01:29;;;;;;;2.10;1.52;;;;;;;15.63;81.12;98193.88;5065121;28;20029;-58
2023/08/03 06:03:54;;;;;;;2.03;1.65;;;;;;;15.71;81.39;98186.38;5064865;28;20029;-57
2023/08/03 06:06:21;;;;;;;3.47;2.05;;;;;;;15.77;81.55;98188.59;5065099;28;20025;-57
2023/08/03 06:08:50;;;;;;;1.88;1.50;;;;;;;15.87;81.42;98183.59;5064649;28;20052;-57
2023/08/03 06:11:17;;;;;;;2.72;2.20;;;;;;;15.93;81.63;98198.03;5065044;28;20029;-56
2023/08/03 06:13:44;;;;;;;6.63;1.70;;;;;;;16.02;81.55;98194.88;5064799;28;20084;-57
2023/08/03 06:16:11;;;;;;;4.60;1.90;;;;;;;16.06;81.25;98193.72;5064799;28;20047;-54
2023/08/03 06:18:53;;;;;;;1.63;1.48;;;;;;;16.09;81.33;98188.28;5064661;28;20054;-54
2023/08/03 06:21:20;;;;;;;;;;;;;;;16.10;81.33;98183.88;5065068;28;20049;-57
2023/08/03 06:23:48;;;;;;;2.47;1.50;;;;;;;16.03;81.46;98177.38;5065216;28;19909;-54
2023/08/03 06:26:15;;;;;;;4.78;2.08;;;;;;;16.17;81.83;98190.38;5068528;28;20067;-55
2023/08/03 06:28:42;;;;;;;2.38;1.58;;;;;;;16.36;81.75;98183.88;5068369;28;20028;-57
2023/08/03 06:31:24;;;;;;;4.63;2.08;;;;;;;16.43;81.51;98194.78;5068489;28;20025;-57
2023/08/03 06:33:50;;;;;;;2.40;1.50;;;;;;;16.52;81.67;98194.13;5068245;28;20016;-58
2023/08/03 06:36:20;;;;;;;1.83;1.52;;;;;;;16.66;81.01;98192.34;5067173;28;20393;-56
2023/08/03 06:38:47;;;;;;;2.65;1.95;;;;;;;16.70;81.24;98196.44;5067815;28;20070;-55
2023/08/03 06:41:13;;;;;;;4.25;2.33;;;;;;;16.75;81.22;98196.09;5068238;28;20075;-55
2023/08/03 06:43:39;;;;;;;3.83;1.85;;;;;;;16.77;81.00;98192.47;5068188;28;20034;-57
2023/08/03 06:46:05;;;;;;;2.80;2.00;;;;;;;16.85;80.79;98199.78;5068152;28;20416;-59
2023/08/03 06:48:32;;;;;;;2.33;1.80;;;;;;;16.85;80.69;98197.97;5068141;28;20435;-57
2023/08/03 06:50:57;;;;;;;2.35;1.70;;;;;;;16.89;80.91;98195.13;5066884;28;20032;-60
2023/08/03 06:53:23;;;;;;;3.55;2.00;;;;;;;16.98;81.02;98191.88;5067657;28;20060;-55
2023/08/03 06:55:49;;;;;;;2.60;1.70;;;;;;;17.12;80.67;98195.34;5067890;28;20043;-56
2023/08/03 06:58:15;;;;;;;6.43;2.45;;;;;;;17.27;81.08;98198.66;5067866;28;20031;-56
2023/08/03 07:00:41;;;;;;;2.75;2.20;;;;;;;17.52;80.75;98199.50;5067746;28;20032;-56
2023/08/03 07:03:07;;;;;;;1.83;1.65;;;;;;;17.61;79.68;98192.72;5067640;28;20021;-56
2023/08/03 07:05:33;;;;;;;3.47;2.00;;;;;;;17.62;79.72;98191.78;5067521;28;20029;-58
2023/08/03 07:07:58;;;;;;;4.30;1.88;;;;;;;17.71;79.79;98191.09;5067403;28;20028;-57
2023/08/03 07:10:24;;;;;;;3.28;2.20;;;;;;;17.72;78.70;98198.00;5068011;28;20029;-55
2023/08/03 07:12:49;;;;;;;2.75;2.05;;;;;;;17.71;79.13;98188.47;5066314;28;20078;-55
2023/08/03 07:15:15;;;;;;;2.30;2.00;;;;;;;17.78;78.65;98199.38;5067790;28;20025;-57
2023/08/03 07:17:40;;;;;;;2.83;2.05;;;;;;;17.81;78.54;98199.94;5067568;28;20017;-55
2023/08/03 07:20:08;;;;;;;3.17;2.33;;;;;;;17.96;78.21;98186.63;5067619;28;20032;-57
2023/08/03 07:22:35;;;;;;;2.83;2.13;;;;;;;18.12;78.34;98198.63;5067095;28;20025;-57
2023/08/03 07:25:00;;;;;;;4.32;2.65;;;;;;;18.11;77.64;98189.91;5067427;28;20028;-55
2023/08/03 07:27:26;;;;;;;2.88;2.30;;;;;;;18.23;77.99;98188.16;5067393;28;20020;-56
2023/08/03 07:29:51;;;;;;;10.38;2.58;;;;;;;18.51;77.81;98195.72;5067266;28;20025;-56
2023/08/03 07:32:16;;;;;;;2.58;2.08;;;;;;;18.73;77.94;98183.53;5067469;28;20342;-57
2023/08/03 07:34:43;;;;;;;2.08;1.77;;;;;;;19.18;78.31;98187.94;5067200;28;20029;-57
2023/08/03 07:37:08;;;;;;;2.30;1.60;;;;;;;19.62;76.97;98193.19;5067067;28;20105;-59
2023/08/03 07:39:34;;;;;;;4.05;1.88;;;;;;;19.91;76.37;98192.59;5066881;28;20033;-54
2023/08/03 07:41:59;;;;;;;2.17;1.58;;;;;;;20.12;75.65;98194.41;5067208;28;20199;-54
2023/08/03 07:44:25;;;;;;;2.70;1.92;;;;;;;20.04;73.49;98204.75;5067021;28;20025;-53
2023/08/03 07:46:50;;;;;;;2.05;1.73;;;;;;;19.65;71.86;98202.66;5067161;28;20017;-56
2023/08/03 07:49:16;;;;;;;3.47;1.40;;;;;;;19.25;71.71;98210.16;5066923;28;20031;-56
2023/08/03 07:51:41;;;;;;;2.83;2.08;;;;;;;18.98;72.00;98208.72;5067070;28;20316;-57
2023/08/03 07:54:06;;;;;;;1.58;1.40;;;;;;;18.85;71.94;98205.41;5066695;28;20041;-55
2023/08/03 07:56:32;;;;;;;1.77;1.40;;;;;;;18.70;72.32;98209.13;5066952;28;20136;-60
2023/08/03 07:59:00;;;;;;;2.15;1.33;;;;;;;18.67;72.73;98208.50;5066852;28;20029;-57
2023/08/03 08:01:26;;;;;;;2.92;1.95;;;;;;;18.68;72.47;98205.78;5066929;28;20345;-55
2023/08/03 08:03:52;;;;;;;2.33;1.40;;;;;;;18.72;72.74;98208.16;5066575;28;20025;-52
2023/08/03 08:06:19;;;;;;;1.17;1.02;;;;;;;18.75;72.74;98205.28;5066757;28;20025;-56
2023/08/03 08:08:47;;;;;;;1.70;1.52;;;;;;;18.79;72.45;98206.72;5066599;28;20032;-56
2023/08/03 08:11:14;;;;;;;2.40;1.65;;;;;;;18.78;72.30;98205.91;5066919;28;20029;-55
2023/08/03 08:13:41;;;;;;;5.47;1.77;;;;;;;18.75;72.21;98210.53;5065163;28;20051;-57
2023/08/03 08:16:08;;;;;;;2.45;1.50;;;;;;;18.75;72.32;98210.53;5066580;28;20025;-58
2023/08/03 08:18:35;;;;;;;2.00;1.63;;;;;;;18.69;72.03;98207.44;5066409;28;20042;-55
2023/08/03 08:21:05;;;;;;;3.05;1.50;;;;;;;18.76;72.36;98207.78;5066550;28;20021;-55
2023/08/03 08:23:32;;;;;;;5.53;1.90;;;;;;;19.02;72.88;98218.06;5066004;28;20029;-55
2023/08/03 08:25:57;;;;;;;3.00;1.83;;;;;;;19.31;72.43;98207.03;5066372;28;20103;-57
2023/08/03 08:28:23;;;;;;;3.38;1.65;;;;;;;19.59;72.13;98219.75;5066160;28;20096;-55
2023/08/03 08:30:49;;;;;;;2.47;1.70;;;;;;;19.79;72.19;98220.75;5066439;28;20025;-56
2023/08/03 08:33:16;;;;;;;2.53;1.58;;;;;;;19.87;70.97;98216.66;5066228;28;20068;-57
2023/08/03 08:35:42;;;;;;;3.15;1.90;;;;;;;19.84;69.96;98222.19;5066246;28;20032;-57
2023/08/03 08:38:17;;;;;;;1.40;1.30;;;;;;;19.78;69.36;98224.34;5065736;28;20092;-55
2023/08/03 08:40:47;;;;;;;2.65;1.38;;;;;;;19.70;68.54;98216.25;5066245;28;20025;-55
2023/08/03 08:43:13;;;;;;;1.90;1.48;;;;;;;19.68;68.83;98223.44;5066270;28;20031;-54
2023/08/03 08:45:39;;;;;;;1.27;1.10;;;;;;;19.69;68.77;98223.31;5065910;28;20103;-56
2023/08/03 08:48:05;;;;;;;2.25;1.50;;;;;;;19.64;68.33;98220.22;5064556;28;20016;-57
2023/08/03 08:50:31;;;;;;;2.08;1.45;;;;;;;19.57;67.97;98219.88;5065890;28;20442;-56
2023/08/03 08:52:58;;;;;;;1.58;1.13;;;;;;;19.58;68.31;98223.34;5065692;28;20055;-55
2023/08/03 08:55:29;;;;;;;1.50;1.10;;;;;;;19.60;68.63;98220.59;5065853;28;20036;-54
2023/08/03 08:57:56;;;;;;;2.70;1.33;;;;;;;19.58;67.44;98223.34;5065685;28;20025;-55
2023/08/03 09:00:24;;;;;;;3.47;1.33;;;;;;;19.55;68.01;98228.88;5065788;28;20059;-56
2023/08/03 09:02:59;;;;;;;1.65;1.30;;;;;;;19.56;67.63;98228.75;5066021;28;20061;-54
2023/08/03 09:05:26;;;;;;;1.70;1.20;;;;;;;19.66;68.30;98225.34;5065735;28;20032;-58
2023/08/03 09:08:03;;;;;;;2.38;1.33;;;;;;;19.91;67.41;98225.97;5065628;28;20059;-57
2023/08/03 09:10:48;;;;;;;2.78;1.23;;;;;;;20.04;66.79;98217.91;5065609;28;20481;-56
2023/08/03 09:13:26;;;;;;;3.28;1.58;;;;;;;20.15;66.48;98217.88;5065491;28;20458;-55
2023/08/03 09:15:52;;;;;;;3.08;1.80;;;;;;;20.32;66.83;98218.22;5065564;28;20088;-56
2023/08/03 09:18:19;;;;;;;1.83;1.08;;;;;;;20.78;66.39;98216.09;5065266;28;20032;-58
2023/08/03 09:20:45;;;;;;;2.10;1.40;;;;;;;21.14;65.73;98218.34;5065561;28;20481;-57
2023/08/03 09:23:26;;;;;;;1.77;1.35;;;;;;;21.63;64.90;98227.31;5065077;28;20025;-57
2023/08/03 09:25:52;;;;;;;2.47;1.52;;;;;;;22.16;63.39;98228.69;5065458;28;20036;-55
2023/08/03 09:28:18;;;;;;;1.58;1.13;;;;;;;22.17;62.06;98219.78;5065390;28;20051;-57
2023/08/03 09:30:50;;;;;;;1.08;0.82;;;;;;;22.21;61.28;98227.44;5065450;28;20051;-56
2023/08/03 09:33:15;;;;;;;1.02;0.93;;;;;;;22.49;61.44;98227.53;5065425;28;20020;-56
2023/08/03 09:35:41;;;;;;;1.35;1.17;;;;;;;22.63;60.45;98218.31;5065336;28;20047;-57
2023/08/03 09:38:23;;;;;;;1.23;1.13;;;;;;;23.07;60.72;98230.13;5064739;28;20044;-57
2023/08/03 09:40:50;;;;;;;1.90;1.23;;;;;;;23.44;58.88;98228.38;5065304;28;20029;-56
2023/08/03 09:43:17;;;;;;;1.08;0.80;;;;;;;23.46;54.68;98242.31;5065098;28;20044;-58
2023/08/03 09:45:45;;;;;;;1.67;0.93;;;;;;;23.08;55.19;98239.72;5063965;28;20029;-58
2023/08/03 09:48:11;;;;;;;1.05;0.88;;;;;;;22.93;56.52;98236.69;5063585;28;20377;-58
2023/08/03 09:50:39;;;;;;;1.48;0.75;;;;;;;22.79;55.27;98236.22;5065108;28;20032;-58
2023/08/03 09:53:14;;;;;;;1.25;0.70;;;;;;;22.60;55.26;98245.91;5064950;28;20049;-58
2023/08/03 09:55:45;;;;;;;0.60;0.57;;;;;;;22.63;54.22;98247.41;5065153;28;20496;-58
2023/08/03 09:58:16;;;;;;;0.75;0.68;;;;;;;22.76;54.33;98239.97;5065215;28;20056;-56
2023/08/03 10:00:44;;;;;;;1.65;0.90;;;;;;;23.04;54.95;98233.88;5069097;28;20048;-57
2023/08/03 10:03:11;;;;;;;1.17;0.68;;;;;;;23.57;53.17;98243.91;5069018;28;20021;-57
2023/08/03 10:05:43;;;;;;;1.42;0.82;;;;;;;23.62;53.35;98234.53;5069173;28;20017;-56
2023/08/03 10:08:42;;;;;;;1.40;1.08;;;;;;;23.85;52.53;98257.91;5068873;28;20377;-53
2023/08/03 10:11:12;;;;;;;1.25;1.00;;;;;;;23.83;51.60;98248.44;5067163;28;20065;-56
2023/08/03 10:13:44;;;;;;;1.13;1.00;;;;;;;23.81;52.42;98248.59;5068972;28;20078;-56
2023/08/03 10:16:10;;;;;;;3.15;0.90;;;;;;;23.62;51.63;98254.88;5068972;28;20025;-59
2023/08/03 10:18:37;;;;;;;0.68;0.60;;;;;;;23.17;52.25;98249.41;5068507;28;20035;-56
2023/08/03 10:21:03;;;;;;;2.05;1.20;;;;;;;22.77;53.19;98256.69;5068742;28;20058;-57
2023/08/03 10:23:28;;;;;;;1.00;0.90;;;;;;;22.45;53.81;98255.19;5068358;28;20017;-56
2023/08/03 10:25:54;;;;;;;1.67;1.20;;;;;;;22.24;53.90;98246.50;5068687;28;20037;-56
2023/08/03 10:28:20;;;;;;;3.42;0.93;;;;;;;22.01;53.59;98252.06;5068500;28;20081;-53
2023/08/03 10:31:07;;;;;;;2.05;1.00;;;;;;;21.74;54.04;98261.47;5068637;28;20025;-54
2023/08/03 10:33:51;;;;;;;0.80;0.80;;;;;;;21.59;54.11;98255.78;5068437;28;20401;-58
2023/08/03 10:36:31;;;;;;;1.63;0.85;;;;;;;21.35;54.27;98266.69;5068709;28;20033;-56
2023/08/03 10:39:01;;;;;;;2.35;1.40;;;;;;;21.35;54.69;98264.91;5068246;28;20033;-57
2023/08/03 10:41:36;;;;;;;1.83;1.00;;;;;;;21.33;55.16;98268.63;5068360;28;20021;-53
2023/08/03 10:44:22;;;;;;;1.13;1.02;;;;;;;21.40;55.69;98269.78;5066751;28;20045;-57
2023/08/03 10:46:52;;;;;;;3.40;1.00;;;;;;;21.48;55.21;98269.94;5068072;28;20107;-56
2023/08/03 10:49:21;;;;;;;1.67;1.05;;;;;;;21.53;55.49;98274.81;5068464;28;20047;-57
2023/08/03 10:51:54;;;;;;;2.85;0.93;;;;;;;21.79;55.34;98274.28;5068262;28;20051;-58
2023/08/03 10:54:27;;;;;;;1.60;1.00;;;;;;;21.84;54.92;98282.66;5067868;28;20044;-55
2023/08/03 10:57:18;;;;;;;1.00;0.90;;;;;;;21.65;55.57;98270.22;5068125;28;20082;-56
2023/08/03 10:59:50;;;;;;;1.73;0.98;;;;;;;21.71;55.49;98280.25;5066577;28;20029;-55
2023/08/03 11:02:25;;;;;;;1.38;1.02;;;;;;;21.70;55.36;98286.50;5067869;28;20029;-55
2023/08/03 11:05:05;;;;;;;2.38;1.00;;;;;;;21.63;54.69;98290.69;5066703;28;20032;-53
2023/08/03 11:07:39;;;;;;;1.58;0.70;;;;;;;21.32;55.01;98296.00;5068017;28;20044;-55
2023/08/03 11:10:06;;;;;;;1.35;0.82;;;;;;;21.10;55.76;98290.81;5067450;28;20025;-54
2023/08/03 11:12:33;;;;;;;10.95;1.30;;;;;;;20.98;55.91;98284.78;5067478;28;20070;-55
2023/08/03 11:15:01;;;;;;;1.52;0.93;;;;;;;20.89;55.88;98290.81;5067588;28;20025;-56
2023/08/03 11:17:29;;;;;;;1.50;0.90;;;;;;;20.90;56.21;98285.41;5067419;28;20033;-51
2023/08/03 11:19:56;;;;;;;1.92;1.23;;;;;;;21.18;56.18;98292.78;5065916;28;20032;-53
2023/08/03 11:22:23;;;;;;;1.50;1.02;;;;;;;21.40;55.46;98291.75;5067297;28;20027;-57
2023/08/03 11:24:54;;;;;;;2.92;1.45;;;;;;;21.37;55.73;98289.38;5066985;28;20084;-57
2023/08/03 11:27:20;;;;;;;1.20;1.05;;;;;;;21.63;55.66;98298.59;5067265;28;20039;-58
2023/08/03 11:29:46;;;;;;;2.17;1.02;;;;;;;21.77;54.43;98298.19;5067290;28;20091;-54
2023/08/03 11:32:12;;;;;;;1.42;1.23;;;;;;;21.81;54.13;98300.56;5067278;28;20572;-55
2023/08/03 11:34:40;;;;;;;1.23;0.98;;;;;;;22.00;54.76;98305.03;5067252;28;20025;-58